Time,TemperatureF,DewpointF,PressureIn,WindDirection,WindDirectionDegrees,WindSpeedMPH,WindSpeedGustMPH,Humidity,HourlyPrecipIn,Conditions,Clouds,dailyrainin,SoftwareType,DateUTC
2013-09-15 00:04:00,59.0,39.3,30.02,South,180,0.0,0.0,48,0.00,CLR,,0.00,WeatherDisplay:10.37,2013-09-15 05:04:00,
2013-09-15 00:09:00,59.0,39.3,30.02,South,180,0.0,0.0,48,0.00,CLR,,0.00,WeatherDisplay:10.37,2013-09-15 05:09:00,
2013-09-15 00:14:00,58.6,39.0,30.02,South,180,0.0,0.0,48,0.00,CLR,,0.00,WeatherDisplay:10.37,2013-09-15 05:14:00,
2013-09-15 00:19:00,58.3,38.7,30.02,South,180,0.0,0.0,48,0.00,CLR,,0.00,WeatherDisplay:10.37,2013-09-15 05:19:00,
2013-09-15 00:24:00,57.9,38.3,30.02,South,180,0.0,0.0,48,0.00,CLR,,0.00,WeatherDisplay:10.37,2013-09-15 05:24:00,
2013-09-15 00:29:00,57.6,39.0,30.02,South,180,0.0,0.0,50,0.00,CLR,,0.00,WeatherDisplay:10.37,2013-09-15 05:29:00,
2013-09-15 00:34:00,57.4,38.9,30.02,South,180,0.0,0.0,50,0.00,CLR,,0.00,WeatherDisplay:10.37,2013-09-15 05:34:00,
2013-09-15 00:39:00,57.6,39.6,30.02,South,180,0.0,0.0,51,0.00,CLR,,0.00,WeatherDisplay:10.37,2013-09-15 05:39:00,
2013-09-15 00:44:00,57.6,39.6,30.02,South,180,0.0,0.0,51,0.00,CLR,,0.00,WeatherDisplay:10.37,2013-09-15 05:44:00,
2013-09-15 00:49:00,57.4,39.4,30.02,South,180,0.0,0.0,51,0.00,CLR,,0.00,WeatherDisplay:10.37,2013-09-15 05:49:00,
2013-09-15 00:54:00,57.2,39.2,30.02,South,180,0.0,0.0,51,0.00,CLR,,0.00,WeatherDisplay:10.37,2013-09-15 05:54:00,
2013-09-15 00:59:00,57.0,39.1,30.02,South,180,0.0,0.0,51,0.00,CLR,,0.00,WeatherDisplay:10.37,2013-09-15 05:59:00,
2013-09-15 01:04:00,56.8,38.9,30.02,South,180,0.0,0.0,51,0.00,CLR,,0.00,WeatherDisplay:10.37,2013-09-15 06:04:00,
2013-09-15 01:09:00,56.8,38.9,30.02,South,180,0.0,0.0,51,0.00,CLR,,0.00,WeatherDisplay:10.37,2013-09-15 06:09:00,
2013-09-15 01:14:00,57.0,39.1,30.02,South,180,0.0,0.0,51,0.00,CLR,,0.00,WeatherDisplay:10.37,2013-09-15 06:14:00,
2013-09-15 01:19:00,57.2,39.2,30.02,South,180,0.0,0.0,51,0.00,CLR,,0.00,WeatherDisplay:10.37,2013-09-15 06:19:00,
2013-09-15 01:24:00,57.4,39.4,30.02,South,180,0.0,0.0,51,0.00,CLR,,0.00,WeatherDisplay:10.37,2013-09-15 06:24:00,
2013-09-15 01:29:00,57.2,39.2,30.02,South,180,0.0,0.0,51,0.00,CLR,,0.00,WeatherDisplay:10.37,2013-09-15 06:29:00,
2013-09-15 01:34:00,57.0,39.1,30.02,South,180,0.0,0.0,51,0.00,CLR,,0.00,WeatherDisplay:10.37,2013-09-15 06:34:00,
2013-09-15 01:39:00,56.8,38.9,30.02,South,180,0.0,0.0,51,0.00,CLR,,0.00,WeatherDisplay:10.37,2013-09-15 06:39:00,
2013-09-15 01:44:00,56.8,39.4,30.02,South,180,0.0,0.0,52,0.00,CLR,,0.00,WeatherDisplay:10.37,2013-09-15 06:44:00,
2013-09-15 01:49:00,57.2,39.2,30.02,South,180,0.0,0.0,51,0.00,CLR,,0.00,WeatherDisplay:10.37,2013-09-15 06:49:00,
2013-09-15 01:54:00,57.0,39.6,30.02,South,180,0.0,0.0,52,0.00,CLR,,0.00,WeatherDisplay:10.37,2013-09-15 06:54:00,
2013-09-15 01:59:00,56.7,39.2,30.02,South,180,0.0,0.0,52,0.00,CLR,,0.00,WeatherDisplay:10.37,2013-09-15 06:59:00,
2013-09-15 02:04:00,56.5,39.1,30.02,South,180,0.0,0.0,52,0.00,CLR,,0.00,WeatherDisplay:10.37,2013-09-15 07:04:00,
2013-09-15 14:18:00,82.0,56.0,30.02,North,0,0.0,0.0,41,0.00,CLR,,0.00,WeatherDisplay:10.37,2013-09-15 19:18:00,
2013-09-15 14:25:00,81.9,55.9,30.02,North,0,0.0,0.0,41,0.00,CLR,,0.00,WeatherDisplay:10.37,2013-09-15 19:25:00,
2013-09-15 14:30:00,82.0,55.3,30.02,SE,129,2.7,3.5,40,0.00,CLR,,0.00,WeatherDisplay:10.37,2013-09-15 19:30:00,
2013-09-15 14:35:00,82.4,55.7,30.02,WSW,247,2.7,3.5,40,0.00,CLR,,0.00,WeatherDisplay:10.37,2013-09-15 19:35:00,
2013-09-15 14:40:00,82.6,55.8,30.02,SSE,147,2.7,3.5,40,0.00,CLR,,0.00,WeatherDisplay:10.37,2013-09-15 19:40:00,
2013-09-15 14:45:00,82.2,55.5,30.02,South,170,3.1,3.5,40,0.00,CLR,,0.00,WeatherDisplay:10.37,2013-09-15 19:45:00,
2013-09-15 14:50:00,82.2,55.5,30.02,WNW,296,2.2,3.5,40,0.00,CLR,,0.00,WeatherDisplay:10.37,2013-09-15 19:50:00,
2013-09-15 14:55:00,82.4,55.7,30.02,South,187,0.0,3.6,40,0.00,CLR,,0.00,WeatherDisplay:10.37,2013-09-15 19:55:00,
2013-09-15 15:00:00,82.4,55.7,30.02,SSE,159,2.7,3.5,40,0.00,CLR,,0.00,WeatherDisplay:10.37,2013-09-15 20:00:00,
2013-09-15 15:05:00,82.6,55.8,30.02,West,280,3.1,3.5,40,0.00,CLR,,0.00,WeatherDisplay:10.37,2013-09-15 20:05:00,
2013-09-15 15:10:00,82.8,56.0,30.02,SE,144,0.0,2.7,40,0.00,CLR,,0.00,WeatherDisplay:10.37,2013-09-15 20:10:00,
2013-09-15 15:15:00,82.8,56.0,30.02,SE,125,2.7,2.7,40,0.00,CLR,,0.00,WeatherDisplay:10.37,2013-09-15 20:15:00,
2013-09-15 15:20:00,82.8,56.0,30.02,South,170,3.1,3.5,40,0.00,CLR,,0.00,WeatherDisplay:10.37,2013-09-15 20:20:00,
2013-09-15 15:25:00,82.6,55.8,30.02,SSW,211,0.0,2.3,40,0.00,CLR,,0.00,WeatherDisplay:10.37,2013-09-15 20:25:00,
2013-09-15 15:30:00,82.2,55.5,30.02,SSE,152,0.0,2.3,40,0.00,CLR,,0.00,WeatherDisplay:10.37,2013-09-15 20:30:00,
2013-09-15 15:35:00,82.2,55.5,30.02,SE,146,0.0,0.0,40,0.00,CLR,,0.00,WeatherDisplay:10.37,2013-09-15 20:35:00,
2013-09-15 15:40:00,82.0,55.3,30.02,SE,144,0.0,0.0,40,0.00,CLR,,0.00,WeatherDisplay:10.37,2013-09-15 20:40:00,
2013-09-15 15:45:00,82.0,55.3,30.02,WNW,289,0.0,2.3,40,0.00,CLR,,0.00,WeatherDisplay:10.37,2013-09-15 20:45:00,
2013-09-15 15:50:00,81.9,55.2,30.02,WSW,244,0.0,0.0,40,0.00,CLR,,0.00,WeatherDisplay:10.37,2013-09-15 20:50:00,
2013-09-15 15:55:00,81.5,54.8,30.02,WSW,244,0.0,0.0,40,0.00,CLR,,0.00,WeatherDisplay:10.37,2013-09-15 20:55:00,
2013-09-15 16:00:00,81.1,54.5,30.02,WSW,244,0.0,0.0,40,0.00,CLR,,0.00,WeatherDisplay:10.37,2013-09-15 21:00:00,
2013-09-15 16:05:00,81.0,54.4,30.02,South,176,0.0,3.5,40,0.00,CLR,,0.00,WeatherDisplay:10.37,2013-09-15 21:05:00,
2013-09-15 16:10:00,81.1,54.5,30.02,South,176,0.0,0.0,40,0.00,CLR,,0.00,WeatherDisplay:10.37,2013-09-15 21:10:00,
2013-09-15 16:15:00,81.3,54.7,30.02,SSW,200,0.0,0.0,40,0.00,CLR,,0.00,WeatherDisplay:10.37,2013-09-15 21:15:00,
2013-09-15 16:20:00,81.5,54.8,30.02,ESE,117,0.0,0.0,40,0.00,CLR,,0.00,WeatherDisplay:10.37,2013-09-15 21:20:00,
2013-09-15 16:25:00,81.5,54.8,30.02,WSW,244,0.0,0.0,40,0.00,CLR,,0.00,WeatherDisplay:10.37,2013-09-15 21:25:00,
2013-09-15 16:30:00,81.7,55.0,30.02,West,280,0.0,2.3,40,0.00,CLR,,0.00,WeatherDisplay:10.37,2013-09-15 21:30:00,
2013-09-15 16:35:00,81.5,54.8,30.02,West,266,0.0,0.0,40,0.00,CLR,,0.00,WeatherDisplay:10.37,2013-09-15 21:35:00,
2013-09-15 16:40:00,81.5,54.8,30.02,SSW,200,0.0,0.0,40,0.00,CLR,,0.00,WeatherDisplay:10.37,2013-09-15 21:40:00,
2013-09-15 16:45:00,81.5,54.8,30.02,South,190,2.2,3.5,40,0.00,CLR,,0.00,WeatherDisplay:10.37,2013-09-15 21:45:00,
2013-09-15 16:50:00,81.3,54.7,30.02,SSW,193,0.0,0.0,40,0.00,CLR,,0.00,WeatherDisplay:10.37,2013-09-15 21:50:00,
2013-09-15 16:55:00,81.3,54.7,30.02,South,172,0.0,3.5,40,0.00,CLR,,0.00,WeatherDisplay:10.37,2013-09-15 21:55:00,
2013-09-15 17:00:00,81.0,54.4,30.02,SSW,197,0.0,0.0,40,0.00,CLR,,0.00,WeatherDisplay:10.37,2013-09-15 22:00:00,
2013-09-15 17:05:00,80.8,54.2,29.99,SSW,197,0.0,0.0,40,0.00,CLR,,0.00,WeatherDisplay:10.37,2013-09-15 22:05:00,
2013-09-15 17:10:00,80.4,54.6,29.99,SSW,197,0.0,0.0,41,0.00,CLR,,0.00,WeatherDisplay:10.37,2013-09-15 22:10:00,
2013-09-15 17:15:00,80.2,54.4,29.99,SSW,197,0.0,0.0,41,0.00,CLR,,0.00,WeatherDisplay:10.37,2013-09-15 22:15:00,
2013-09-15 17:20:00,79.9,54.1,29.99,SSW,197,0.0,0.0,41,0.00,CLR,,0.00,WeatherDisplay:10.37,2013-09-15 22:20:00,
2013-09-15 17:25:00,79.7,53.9,29.99,SSW,197,0.0,0.0,41,0.00,CLR,,0.00,WeatherDisplay:10.37,2013-09-15 22:25:00,
2013-09-15 17:30:00,79.5,53.8,29.99,SSW,197,0.0,0.0,41,0.00,CLR,,0.00,WeatherDisplay:10.37,2013-09-15 22:30:00,
2013-09-15 17:35:00,79.5,53.8,29.99,SSW,197,0.0,0.0,41,0.00,CLR,,0.00,WeatherDisplay:10.37,2013-09-15 22:35:00,
2013-09-15 17:40:00,79.5,53.8,29.99,SSW,197,0.0,0.0,41,0.00,CLR,,0.00,WeatherDisplay:10.37,2013-09-15 22:40:00,
2013-09-15 17:45:00,79.3,53.6,29.99,SSW,197,0.0,0.0,41,0.00,CLR,,0.00,WeatherDisplay:10.37,2013-09-15 22:45:00,
2013-09-15 17:50:00,79.2,53.4,29.99,SSW,197,0.0,0.0,41,0.00,CLR,,0.00,WeatherDisplay:10.37,2013-09-15 22:50:00,
2013-09-15 17:55:00,79.2,53.4,29.99,SW,218,0.0,0.0,41,0.00,CLR,,0.00,WeatherDisplay:10.37,2013-09-15 22:55:00,
2013-09-15 18:00:00,79.0,53.3,29.99,SW,218,0.0,0.0,41,0.00,CLR,,0.00,WeatherDisplay:10.37,2013-09-15 23:00:00,
2013-09-15 18:05:00,78.8,53.1,29.99,SW,218,0.0,0.0,41,0.00,CLR,,0.00,WeatherDisplay:10.37,2013-09-15 23:05:00,
2013-09-15 18:10:00,78.4,52.8,29.99,SW,218,0.0,0.0,41,0.00,CLR,,0.00,WeatherDisplay:10.37,2013-09-15 23:10:00,
2013-09-15 18:15:00,78.3,52.6,29.99,SW,218,0.0,0.0,41,0.00,CLR,,0.00,WeatherDisplay:10.37,2013-09-15 23:15:00,
2013-09-15 18:20:00,77.9,52.3,29.99,SW,218,0.0,0.0,41,0.00,CLR,,0.00,WeatherDisplay:10.37,2013-09-15 23:20:00,
2013-09-15 18:25:00,77.5,52.0,29.99,SW,218,0.0,0.0,41,0.00,CLR,,0.00,WeatherDisplay:10.37,2013-09-15 23:25:00,
2013-09-15 18:30:00,77.2,51.7,29.99,SW,218,0.0,0.0,41,0.00,CLR,,0.00,WeatherDisplay:10.37,2013-09-15 23:30:00,
2013-09-15 18:35:00,76.8,51.3,29.99,SW,218,0.0,0.0,41,0.00,CLR,,0.00,WeatherDisplay:10.37,2013-09-15 23:35:00,
2013-09-15 18:40:00,76.5,51.0,29.99,SW,218,0.0,0.0,41,0.00,CLR,,0.00,WeatherDisplay:10.37,2013-09-15 23:40:00,
2013-09-15 18:45:00,76.3,50.8,29.99,SW,218,0.0,0.0,41,0.00,CLR,,0.00,WeatherDisplay:10.37,2013-09-15 23:45:00,
2013-09-15 18:50:00,76.1,50.7,29.99,SW,218,0.0,0.0,41,0.00,CLR,,0.00,WeatherDisplay:10.37,2013-09-15 23:50:00,
2013-09-15 18:55:00,75.7,50.4,29.99,SW,218,0.0,0.0,41,0.00,CLR,,0.00,WeatherDisplay:10.37,2013-09-15 23:55:00,
2013-09-15 19:00:00,75.2,49.9,29.99,SW,218,0.0,0.0,41,0.00,CLR,,0.00,WeatherDisplay:10.37,2013-09-16 00:00:00,
2013-09-15 19:05:00,74.7,50.0,29.99,SW,218,0.0,0.0,42,0.00,CLR,,0.00,WeatherDisplay:10.37,2013-09-16 00:05:00,
2013-09-15 19:10:00,74.3,49.7,29.99,SW,218,0.0,0.0,42,0.00,CLR,,0.00,WeatherDisplay:10.37,2013-09-16 00:10:00,
2013-09-15 19:15:00,73.9,49.4,29.99,SW,218,0.0,0.0,42,0.00,CLR,,0.00,WeatherDisplay:10.37,2013-09-16 00:15:00,
2013-09-15 19:20:00,73.9,49.4,29.99,SW,218,0.0,0.0,42,0.00,CLR,,0.00,WeatherDisplay:10.37,2013-09-16 00:20:00,
2013-09-15 19:25:00,73.6,49.1,29.99,SW,218,0.0,0.0,42,0.00,CLR,,0.00,WeatherDisplay:10.37,2013-09-16 00:25:00,
2013-09-15 19:30:00,73.2,48.7,29.99,SW,218,0.0,0.0,42,0.00,CLR,,0.00,WeatherDisplay:10.37,2013-09-16 00:30:00,
2013-09-15 19:35:00,72.9,48.4,30.02,SW,218,0.0,0.0,42,0.00,CLR,,0.00,WeatherDisplay:10.37,2013-09-16 00:35:00,
2013-09-15 19:40:00,72.5,48.1,30.02,SW,218,0.0,0.0,42,0.00,CLR,,0.00,WeatherDisplay:10.37,2013-09-16 00:40:00,
2013-09-15 19:45:00,72.1,47.8,30.02,SW,218,0.0,0.0,42,0.00,CLR,,0.00,WeatherDisplay:10.37,2013-09-16 00:45:00,
2013-09-15 19:50:00,72.0,47.6,30.02,SW,218,0.0,0.0,42,0.00,CLR,,0.00,WeatherDisplay:10.37,2013-09-16 00:50:00,
2013-09-15 19:55:00,71.6,47.3,30.02,SW,218,0.0,0.0,42,0.00,CLR,,0.00,WeatherDisplay:10.37,2013-09-16 00:55:00,
2013-09-15 20:00:00,71.6,47.3,30.02,SW,218,0.0,0.0,42,0.00,CLR,,0.00,WeatherDisplay:10.37,2013-09-16 01:00:00,
2013-09-15 20:05:00,71.4,47.7,30.02,SW,218,0.0,0.0,43,0.00,CLR,,0.00,WeatherDisplay:10.37,2013-09-16 01:05:00,
2013-09-15 20:10:00,71.4,47.7,30.02,SW,218,0.0,0.0,43,0.00,CLR,,0.00,WeatherDisplay:10.37,2013-09-16 01:10:00,
2013-09-15 20:15:00,71.2,47.6,30.02,SW,218,0.0,0.0,43,0.00,CLR,,0.00,WeatherDisplay:10.37,2013-09-16 01:15:00,
2013-09-15 20:20:00,71.1,47.4,30.02,SW,218,0.0,0.0,43,0.00,CLR,,0.00,WeatherDisplay:10.37,2013-09-16 01:20:00,
2013-09-15 20:25:00,70.9,47.3,30.02,SW,218,0.0,0.0,43,0.00,CLR,,0.00,WeatherDisplay:10.37,2013-09-16 01:25:00,
2013-09-15 20:30:00,70.5,46.9,30.02,SW,218,0.0,0.0,43,0.00,CLR,,0.00,WeatherDisplay:10.37,2013-09-16 01:30:00,
2013-09-15 20:35:00,70.3,46.8,30.02,SW,218,0.0,0.0,43,0.00,CLR,,0.00,WeatherDisplay:10.37,2013-09-16 01:35:00,
2013-09-15 20:40:00,70.3,46.8,30.02,SW,218,0.0,0.0,43,0.00,CLR,,0.00,WeatherDisplay:10.37,2013-09-16 01:40:00,
2013-09-15 20:45:00,70.5,46.9,30.02,SW,218,0.0,0.0,43,0.00,CLR,,0.00,WeatherDisplay:10.37,2013-09-16 01:45:00,
2013-09-15 20:50:00,70.3,46.8,30.02,SW,218,0.0,0.0,43,0.00,CLR,,0.00,WeatherDisplay:10.37,2013-09-16 01:50:00,
2013-09-15 20:55:00,70.3,46.8,30.02,SW,218,0.0,0.0,43,0.00,CLR,,0.00,WeatherDisplay:10.37,2013-09-16 01:55:00,
2013-09-15 21:00:00,70.3,46.8,30.02,SW,218,0.0,0.0,43,0.00,CLR,,0.00,WeatherDisplay:10.37,2013-09-16 02:00:00,
2013-09-15 21:05:00,70.2,46.6,30.02,SW,218,0.0,0.0,43,0.00,CLR,,0.00,WeatherDisplay:10.37,2013-09-16 02:05:00,
2013-09-15 21:10:00,69.8,46.3,30.02,SW,218,0.0,0.0,43,0.00,CLR,,0.00,WeatherDisplay:10.37,2013-09-16 02:10:00,
2013-09-15 21:15:00,69.6,46.1,30.02,SW,218,0.0,0.0,43,0.00,CLR,,0.00,WeatherDisplay:10.37,2013-09-16 02:15:00,
2013-09-15 21:20:00,69.3,45.8,30.02,SW,218,0.0,0.0,43,0.00,CLR,,0.00,WeatherDisplay:10.37,2013-09-16 02:20:00,
2013-09-15 21:25:00,69.1,45.6,30.02,SW,218,0.0,0.0,43,0.00,CLR,,0.00,WeatherDisplay:10.37,2013-09-16 02:25:00,
2013-09-15 21:30:00,69.1,45.6,30.02,SW,218,0.0,0.0,43,0.00,CLR,,0.00,WeatherDisplay:10.37,2013-09-16 02:30:00,
2013-09-15 21:35:00,69.1,45.6,30.05,SW,218,0.0,0.0,43,0.00,CLR,,0.00,WeatherDisplay:10.37,2013-09-16 02:35:00,
2013-09-15 21:40:00,69.1,45.6,30.05,SW,218,0.0,0.0,43,0.00,CLR,,0.00,WeatherDisplay:10.37,2013-09-16 02:40:00,
2013-09-15 21:45:00,68.9,45.5,30.05,SW,218,0.0,0.0,43,0.00,CLR,,0.00,WeatherDisplay:10.37,2013-09-16 02:45:00,
2013-09-15 21:50:00,68.9,45.5,30.02,SW,218,0.0,0.0,43,0.00,CLR,,0.00,WeatherDisplay:10.37,2013-09-16 02:50:00,
2013-09-15 21:55:00,69.1,45.6,30.02,SW,218,0.0,0.0,43,0.00,CLR,,0.00,WeatherDisplay:10.37,2013-09-16 02:55:00,
2013-09-15 22:00:00,69.3,45.8,30.02,SW,218,0.0,0.0,43,0.00,CLR,,0.00,WeatherDisplay:10.37,2013-09-16 03:00:00,
2013-09-15 22:05:00,69.3,45.8,30.02,SW,218,0.0,0.0,43,0.00,CLR,,0.00,WeatherDisplay:10.37,2013-09-16 03:05:00,
2013-09-15 22:10:00,69.3,45.8,30.02,SW,218,0.0,0.0,43,0.00,CLR,,0.00,WeatherDisplay:10.37,2013-09-16 03:10:00,
2013-09-15 22:15:00,69.3,45.8,30.02,SW,218,0.0,0.0,43,0.00,CLR,,0.00,WeatherDisplay:10.37,2013-09-16 03:15:00,
2013-09-15 22:20:00,69.1,45.6,30.02,SW,218,0.0,0.0,43,0.00,CLR,,0.00,WeatherDisplay:10.37,2013-09-16 03:20:00,
2013-09-15 22:25:00,68.9,45.5,30.02,SW,218,0.0,0.0,43,0.00,CLR,,0.00,WeatherDisplay:10.37,2013-09-16 03:25:00,
2013-09-15 22:30:00,69.1,45.6,30.02,SW,218,0.0,0.0,43,0.00,CLR,,0.00,WeatherDisplay:10.37,2013-09-16 03:30:00,
2013-09-15 22:35:00,68.9,45.5,30.02,SW,218,0.0,0.0,43,0.00,CLR,,0.00,WeatherDisplay:10.37,2013-09-16 03:35:00,
2013-09-15 22:40:00,68.9,45.5,30.02,SW,218,0.0,0.0,43,0.00,CLR,,0.00,WeatherDisplay:10.37,2013-09-16 03:40:00,
2013-09-15 22:45:00,69.1,45.6,30.02,SW,218,0.0,0.0,43,0.00,CLR,,0.00,WeatherDisplay:10.37,2013-09-16 03:45:00,
2013-09-15 22:50:00,69.1,45.6,30.02,SW,218,0.0,0.0,43,0.00,CLR,,0.00,WeatherDisplay:10.37,2013-09-16 03:50:00,
2013-09-15 22:55:00,69.1,45.6,30.02,SW,218,0.0,0.0,43,0.00,CLR,,0.00,WeatherDisplay:10.37,2013-09-16 03:55:00,
2013-09-15 23:00:00,69.3,45.8,30.02,SW,218,0.0,0.0,43,0.00,CLR,,0.00,WeatherDisplay:10.37,2013-09-16 04:00:00,
2013-09-15 23:01:00,69.3,45.8,30.02,SW,218,0.0,0.0,43,0.00,CLR,,0.00,WeatherDisplay:10.37,2013-09-16 04:01:00,
2013-09-15 23:02:00,69.3,45.8,30.02,SW,218,0.0,0.0,43,0.00,CLR,,0.00,WeatherDisplay:10.37,2013-09-16 04:02:00,
2013-09-15 23:03:00,69.3,45.8,30.02,SW,218,0.0,0.0,43,0.00,CLR,,0.00,WeatherDisplay:10.37,2013-09-16 04:03:00,
2013-09-15 23:08:00,69.1,45.6,30.02,SW,218,0.0,0.0,43,0.00,CLR,,0.00,WeatherDisplay:10.37,2013-09-16 04:08:00,
2013-09-15 23:13:00,69.1,45.6,30.02,SW,218,0.0,0.0,43,0.00,CLR,,0.00,WeatherDisplay:10.37,2013-09-16 04:13:00,
2013-09-15 23:18:00,68.9,45.5,30.02,SW,218,0.0,0.0,43,0.00,CLR,,0.00,WeatherDisplay:10.37,2013-09-16 04:18:00,
2013-09-15 23:23:00,68.9,45.5,30.02,SW,218,0.0,0.0,43,0.00,CLR,,0.00,WeatherDisplay:10.37,2013-09-16 04:23:00,
2013-09-15 23:28:00,68.7,45.3,30.02,SW,218,0.0,0.0,43,0.00,CLR,,0.00,WeatherDisplay:10.37,2013-09-16 04:28:00,
2013-09-15 23:33:00,68.5,45.1,30.02,SW,218,0.0,0.0,43,0.00,CLR,,0.00,WeatherDisplay:10.37,2013-09-16 04:33:00,
2013-09-15 23:38:00,68.4,45.0,30.02,SW,218,0.0,0.0,43,0.00,CLR,,0.00,WeatherDisplay:10.37,2013-09-16 04:38:00,
2013-09-15 23:43:00,68.4,46.8,30.02,SW,218,0.0,0.0,46,0.00,CLR,,0.00,WeatherDisplay:10.37,2013-09-16 04:43:00,
2013-09-15 23:48:00,68.2,46.6,30.02,SW,218,0.0,0.0,46,0.00,CLR,,0.00,WeatherDisplay:10.37,2013-09-16 04:48:00,
2013-09-15 23:53:00,68.2,46.6,30.02,SW,218,0.0,0.0,46,0.00,CLR,,0.00,WeatherDisplay:10.37,2013-09-16 04:53:00,
2013-09-15 23:58:00,68.0,46.4,30.02,SW,218,0.0,0.0,46,0.00,CLR,,0.00,WeatherDisplay:10.37,2013-09-16 04:58:00,